createdAt,value
2018-09-12T00:01:41.434Z,58.60
2018-09-12T00:04:10.506Z,57.99
2018-09-12T00:06:39.566Z,58.79
2018-09-12T00:09:10.739Z,58.89
2018-09-12T00:11:39.945Z,58.59
2018-09-12T00:14:10.122Z,60.10
2018-09-12T00:16:39.460Z,60.32
2018-09-12T00:19:08.842Z,59.85
2018-09-12T00:21:38.399Z,61.13
2018-09-12T00:24:07.542Z,60.56
2018-09-12T00:26:36.766Z,61.16
2018-09-12T00:29:05.785Z,59.90
2018-09-12T00:31:34.958Z,59.54
2018-09-12T00:34:04.121Z,60.60
2018-09-12T00:36:33.239Z,60.69
2018-09-12T00:39:02.459Z,60.20
2018-09-12T00:41:31.545Z,59.94
2018-09-12T00:44:01.477Z,59.86
2018-09-12T00:46:30.690Z,59.98
2018-09-12T00:48:59.975Z,59.99
2018-09-12T00:51:29.147Z,59.22
2018-09-12T00:53:58.232Z,62.94
2018-09-12T00:56:27.379Z,59.42
2018-09-12T00:58:56.503Z,58.85
2018-09-12T01:01:25.613Z,60.26
2018-09-12T01:03:54.665Z,61.34
2018-09-12T01:06:23.686Z,61.63
2018-09-12T01:08:52.848Z,63.67
2018-09-12T01:11:23.713Z,63.94
2018-09-12T01:13:54.146Z,64.22
2018-09-12T01:16:23.238Z,64.89
2018-09-12T01:18:52.511Z,65.33
2018-09-12T01:21:21.538Z,66.66
2018-09-12T01:23:51.492Z,67.69
2018-09-12T01:26:57.311Z,65.51
2018-09-12T01:35:50.930Z,64.83
2018-09-12T01:38:20.929Z,63.95
2018-09-12T01:40:50.211Z,64.74
2018-09-12T01:43:19.275Z,65.67
2018-09-12T01:45:48.506Z,65.79
2018-09-12T01:48:17.612Z,64.98
2018-09-12T01:50:53.165Z,66.86
2018-09-12T01:53:22.257Z,65.74
2018-09-12T01:55:51.446Z,65.80
2018-09-12T01:58:20.618Z,66.67
2018-09-12T02:00:49.792Z,67.02
2018-09-12T02:03:18.805Z,66.68
2018-09-12T02:05:47.931Z,65.74
2018-09-12T02:08:17.273Z,64.28
2018-09-12T02:10:46.323Z,62.82
2018-09-12T02:13:15.959Z,63.37
2018-09-12T02:15:45.114Z,64.24
2018-09-12T02:18:14.958Z,66.00
2018-09-12T02:20:44.179Z,65.58
2018-09-12T02:23:13.487Z,66.27
2018-09-12T02:25:42.502Z,64.58
2018-09-12T02:28:31.103Z,64.59
2018-09-12T02:31:00.814Z,65.76
2018-09-12T02:33:30.086Z,65.92
2018-09-12T02:36:04.284Z,66.48
2018-09-12T02:38:33.434Z,68.03
2018-09-12T02:41:02.621Z,68.21
2018-09-12T02:43:32.059Z,66.73
2018-09-12T02:46:01.497Z,67.01
2018-09-12T02:48:30.978Z,67.46
2018-09-12T02:57:52.569Z,69.17
2018-09-12T03:00:21.655Z,69.26
2018-09-12T03:02:50.686Z,69.49
2018-09-12T03:05:19.801Z,69.31
2018-09-12T03:07:48.914Z,69.87
2018-09-12T03:10:18.001Z,71.05
2018-09-12T03:12:47.089Z,69.75
2018-09-12T03:15:16.843Z,70.62
2018-09-12T03:17:45.922Z,69.67
2018-09-12T03:20:15.359Z,70.78
2018-09-12T03:22:44.365Z,70.43
2018-09-12T03:25:13.693Z,70.18
2018-09-12T03:27:42.899Z,71.22
2018-09-12T03:30:11.975Z,70.88
2018-09-12T03:32:41.109Z,72.02
2018-09-12T03:35:10.287Z,71.36
2018-09-12T03:37:39.424Z,71.41
2018-09-12T03:40:08.833Z,71.32
2018-09-12T03:42:37.967Z,70.32
2018-09-12T03:45:07.535Z,70.28
2018-09-12T03:47:36.658Z,70.89
2018-09-12T03:50:05.911Z,71.12
2018-09-12T03:52:35.005Z,71.78
2018-09-12T03:55:08.450Z,72.16
2018-09-12T03:57:37.454Z,71.87
2018-09-12T04:00:07.409Z,72.21
2018-09-12T04:02:36.623Z,72.15
2018-09-12T04:05:06.189Z,71.80
2018-09-12T04:07:35.312Z,72.58
2018-09-12T04:10:04.484Z,72.32
2018-09-12T04:12:33.623Z,72.56
2018-09-12T04:15:02.787Z,73.23
2018-09-12T04:17:34.857Z,74.33
2018-09-12T04:20:03.940Z,74.40
2018-09-12T04:22:33.561Z,74.68
2018-09-12T04:25:02.637Z,75.47
2018-09-12T04:27:31.634Z,76.21
2018-09-12T04:30:00.639Z,76.98
2018-09-12T04:32:29.733Z,78.21
2018-09-12T04:34:58.704Z,78.37
2018-09-12T04:37:27.679Z,79.24
2018-09-12T04:39:56.745Z,79.74
2018-09-12T04:42:25.708Z,79.66
2018-09-12T04:44:54.717Z,80.57
2018-09-12T04:47:23.758Z,79.47
2018-09-12T04:49:52.854Z,78.17
2018-09-12T04:52:21.832Z,77.51
2018-09-12T04:54:50.983Z,77.97
2018-09-12T04:57:20.050Z,77.16
2018-09-12T04:59:49.186Z,77.60
2018-09-12T05:02:18.149Z,77.72
2018-09-12T05:04:47.112Z,77.08
2018-09-12T05:07:16.684Z,75.31
2018-09-12T05:09:45.829Z,71.81
2018-09-12T05:12:15.349Z,69.29
2018-09-12T05:14:44.284Z,66.96
2018-09-12T05:17:13.661Z,64.80
2018-09-12T05:19:42.677Z,62.20
2018-09-12T05:22:11.742Z,61.02
2018-09-12T05:24:40.902Z,60.33
2018-09-12T05:27:09.853Z,62.48
2018-09-12T05:29:38.991Z,64.41
2018-09-12T05:43:03.697Z,59.00
2018-09-12T05:45:32.864Z,57.28
2018-09-12T05:48:01.855Z,57.53
2018-09-12T05:50:30.781Z,57.77
2018-09-12T05:52:59.842Z,57.29
2018-09-12T05:55:28.845Z,58.21
2018-09-12T05:57:57.887Z,57.88
2018-09-12T06:00:27.113Z,57.42
2018-09-12T06:02:56.222Z,57.11
2018-09-12T06:05:25.244Z,54.71
2018-09-12T06:07:54.359Z,53.42
2018-09-12T06:10:23.393Z,53.32
2018-09-12T06:12:52.426Z,53.19
2018-09-12T06:15:21.625Z,54.38
2018-09-12T06:17:50.708Z,53.89
2018-09-12T06:20:20.209Z,53.67
2018-09-12T06:22:49.296Z,53.36
2018-09-12T06:25:18.266Z,53.80
2018-09-12T06:27:47.260Z,53.43
2018-09-12T06:30:17.012Z,52.75
2018-09-12T06:32:46.042Z,53.79
2018-09-12T06:35:18.890Z,53.30
2018-09-12T06:37:47.997Z,53.70
2018-09-12T06:40:17.473Z,54.39
2018-09-12T06:42:46.590Z,53.25
2018-09-12T06:45:16.303Z,53.12
2018-09-12T06:47:45.402Z,52.06
2018-09-12T06:50:14.949Z,50.66
2018-09-12T06:52:43.902Z,49.85
2018-09-12T06:55:12.942Z,49.40
2018-09-12T06:57:42.053Z,48.14
2018-09-12T07:00:11.313Z,48.35
2018-09-12T07:02:40.295Z,49.16
2018-09-12T07:05:09.701Z,47.57
2018-09-12T07:07:38.853Z,47.21
2018-09-12T07:10:08.454Z,47.52
2018-09-12T07:12:37.541Z,47.44
2018-09-12T07:15:06.982Z,46.46
2018-09-12T07:17:36.035Z,46.43
2018-09-12T07:20:05.348Z,46.61
2018-09-12T07:22:34.513Z,45.60
2018-09-12T07:25:03.922Z,46.27
2018-09-12T07:27:33.173Z,46.79
2018-09-12T07:30:02.215Z,46.04
2018-09-12T07:32:31.594Z,45.71
2018-09-12T07:35:01.084Z,43.81
2018-09-12T07:37:30.177Z,42.80
2018-09-12T07:39:59.155Z,44.58
2018-09-12T07:42:28.352Z,45.25
2018-09-12T07:44:57.344Z,43.88
2018-09-12T07:47:26.346Z,44.05
2018-09-12T07:49:55.948Z,44.02
2018-09-12T07:52:25.400Z,43.59
2018-09-12T07:54:54.371Z,44.05
2018-09-12T07:57:23.607Z,46.67
2018-09-12T07:59:52.710Z,45.25
2018-09-12T08:02:21.857Z,45.52
2018-09-12T08:04:50.845Z,45.51
2018-09-12T08:07:19.939Z,46.44
2018-09-12T08:09:49.020Z,45.18
2018-09-12T08:12:18.165Z,43.85
2018-09-12T08:14:47.286Z,44.34
2018-09-12T08:17:16.956Z,43.73
2018-09-12T08:19:46.126Z,43.45
2018-09-12T08:22:15.496Z,44.56
2018-09-12T08:24:44.450Z,42.54
2018-09-12T08:27:13.852Z,42.42
2018-09-12T08:29:42.864Z,40.92
2018-09-12T08:32:11.953Z,39.38
2018-09-12T08:34:41.103Z,42.08
2018-09-12T08:37:10.150Z,39.83
2018-09-12T08:39:39.211Z,37.12
2018-09-12T08:42:08.401Z,36.79
2018-09-12T08:44:37.435Z,37.82
2018-09-12T08:47:06.640Z,36.48
2018-09-12T08:49:35.785Z,37.96
2018-09-12T08:52:04.757Z,39.68
2018-09-12T08:54:33.825Z,37.74
2018-09-12T08:57:05.714Z,35.30
2018-09-12T08:59:34.736Z,34.15
2018-09-12T09:02:03.732Z,35.09
2018-09-12T09:04:35.466Z,34.04
2018-09-12T09:07:04.615Z,35.67
2018-09-12T09:09:33.617Z,33.46
2018-09-12T09:12:02.617Z,32.09
2018-09-12T09:14:31.581Z,30.69
2018-09-12T09:17:00.575Z,31.91
2018-09-12T09:19:29.681Z,31.51
2018-09-12T09:24:10.441Z,32.11
2018-09-12T09:26:39.448Z,32.59
2018-09-12T09:29:08.419Z,32.98
2018-09-12T09:31:37.434Z,34.15
2018-09-12T09:34:06.561Z,34.58
2018-09-12T09:36:35.536Z,36.23
2018-09-12T09:39:06.365Z,35.88
2018-09-12T09:41:35.380Z,34.85
2018-09-12T09:44:04.418Z,33.89
2018-09-12T09:46:33.613Z,32.05
2018-09-12T09:49:03.369Z,33.02
2018-09-12T09:51:32.431Z,30.99
2018-09-12T09:54:01.499Z,32.77
2018-09-12T09:56:34.332Z,32.47
2018-09-12T09:59:03.407Z,30.55
2018-09-12T10:01:37.431Z,30.43
2018-09-12T10:04:11.512Z,29.89
2018-09-12T10:06:45.805Z,30.12
2018-09-12T10:09:19.800Z,30.35
2018-09-12T10:11:49.008Z,30.88
2018-09-12T10:18:00.730Z,30.08
2018-09-12T10:23:51.293Z,29.42
2018-09-12T10:26:20.261Z,30.26
2018-09-12T10:28:49.318Z,31.80
2018-09-12T10:31:18.362Z,28.74
2018-09-12T10:33:47.379Z,28.30
2018-09-12T10:36:16.649Z,28.24
2018-09-12T10:38:45.677Z,30.29
2018-09-12T10:41:14.866Z,32.68
2018-09-12T10:43:43.857Z,32.94
2018-09-12T10:46:12.924Z,34.01
2018-09-12T10:48:41.951Z,32.82
2018-09-12T10:51:10.958Z,29.87
2018-09-12T10:53:40.311Z,29.71
2018-09-12T10:56:09.416Z,30.30
2018-09-12T10:58:38.328Z,31.81
2018-09-12T11:01:07.569Z,32.55
2018-09-12T11:03:36.540Z,31.77
2018-09-12T11:06:05.583Z,31.31
2018-09-12T11:08:34.609Z,31.13
2018-09-12T11:11:03.597Z,30.00
2018-09-12T11:13:32.800Z,29.41
2018-09-12T11:16:01.862Z,31.07
2018-09-12T11:18:30.891Z,30.85
2018-09-12T11:20:59.912Z,29.85
2018-09-12T11:23:32.897Z,28.95
2018-09-12T11:26:01.957Z,31.44
2018-09-12T11:28:30.918Z,29.33
2018-09-12T11:30:59.993Z,29.42
2018-09-12T11:33:28.998Z,29.23
2018-09-12T11:35:58.009Z,29.67
2018-09-12T11:38:27.076Z,29.86
2018-09-12T11:40:56.141Z,31.90
2018-09-12T11:43:25.085Z,31.58
2018-09-12T11:45:54.081Z,31.62
2018-09-12T11:48:23.207Z,31.85
2018-09-12T11:50:52.225Z,27.54
2018-09-12T11:53:21.363Z,28.75
2018-09-12T11:55:50.364Z,28.82
2018-09-12T11:58:19.330Z,26.92
2018-09-12T12:00:48.368Z,25.16
2018-09-12T12:03:17.826Z,24.52
2018-09-12T12:05:46.786Z,26.14
2018-09-12T12:08:16.209Z,26.25
2018-09-12T12:10:45.170Z,26.63
2018-09-12T12:13:14.568Z,26.07
2018-09-12T12:15:43.629Z,25.59
2018-09-12T12:18:12.652Z,25.69
2018-09-12T12:20:41.606Z,25.58
2018-09-12T12:23:10.690Z,24.30
2018-09-12T12:25:39.681Z,22.54
2018-09-12T12:28:08.698Z,23.60
2018-09-12T12:30:37.696Z,24.02
2018-09-12T12:33:07.077Z,24.21
2018-09-12T12:35:36.092Z,24.64
2018-09-12T12:38:05.209Z,24.57
2018-09-12T12:40:34.233Z,23.44
2018-09-12T12:43:06.218Z,25.15
2018-09-12T12:45:35.276Z,26.35
2018-09-12T12:48:04.289Z,26.28
2018-09-12T12:50:33.311Z,26.30
2018-09-12T12:53:02.395Z,27.59
2018-09-12T12:55:31.449Z,25.81
2018-09-12T12:58:00.461Z,25.96
2018-09-12T13:00:29.494Z,26.08
2018-09-12T13:02:58.423Z,25.51
2018-09-12T13:05:27.426Z,24.17
2018-09-12T13:07:56.380Z,25.17
2018-09-12T13:10:25.355Z,24.96
2018-09-12T13:12:54.381Z,24.43
2018-09-12T13:15:23.359Z,23.91
2018-09-12T13:17:52.332Z,23.78
2018-09-12T13:20:21.400Z,24.59
2018-09-12T13:22:50.344Z,25.87
2018-09-12T13:25:19.406Z,24.57
2018-09-12T13:27:48.493Z,23.78
2018-09-12T13:30:17.734Z,22.27
2018-09-12T13:32:46.689Z,21.36
2018-09-12T13:35:16.361Z,22.35
2018-09-12T13:37:45.296Z,23.75
2018-09-12T13:40:14.688Z,24.42
2018-09-12T13:42:43.664Z,25.44
2018-09-12T13:45:12.885Z,24.91
2018-09-12T13:47:42.358Z,24.65
2018-09-12T13:50:11.595Z,25.28
2018-09-12T13:52:40.601Z,27.23
2018-09-12T13:55:09.701Z,26.28
2018-09-12T13:57:38.701Z,27.43
2018-09-12T14:00:08.116Z,27.45
2018-09-12T14:02:37.192Z,26.39
2018-09-12T14:05:06.411Z,27.68
2018-09-12T14:07:35.746Z,27.73
2018-09-12T14:10:05.428Z,28.36
2018-09-12T14:12:34.522Z,27.75
2018-09-12T14:15:03.674Z,27.70
2018-09-12T14:17:32.732Z,26.64
2018-09-12T14:20:01.847Z,25.50
2018-09-12T14:22:30.849Z,25.31
2018-09-12T14:24:59.879Z,25.35
2018-09-12T14:27:28.842Z,27.67
2018-09-12T14:29:58.081Z,27.34
2018-09-12T14:32:27.115Z,28.57
2018-09-12T14:34:56.119Z,29.12
2018-09-12T14:37:25.221Z,29.51
2018-09-12T14:39:54.243Z,29.85
2018-09-12T14:42:23.356Z,30.22
2018-09-12T14:44:52.379Z,29.08
2018-09-12T14:47:21.561Z,29.23
2018-09-12T14:49:50.617Z,29.51
2018-09-12T14:52:19.579Z,30.54
2018-09-12T14:54:48.616Z,30.79
2018-09-12T14:57:17.917Z,30.68
2018-09-12T14:59:46.932Z,30.20
2018-09-12T15:02:16.351Z,29.30
2018-09-12T15:04:45.452Z,29.80
2018-09-12T15:07:15.004Z,29.54
2018-09-12T15:09:44.137Z,30.14
2018-09-12T15:12:15.872Z,31.36
2018-09-12T15:14:44.841Z,30.64
2018-09-12T15:17:14.220Z,31.12
2018-09-12T15:19:43.277Z,31.21
2018-09-12T15:22:13.133Z,31.57
2018-09-12T15:24:42.182Z,31.45
2018-09-12T15:27:11.273Z,30.12
2018-09-12T15:29:40.241Z,30.39
2018-09-12T15:32:09.283Z,31.53
2018-09-12T15:34:38.337Z,31.58
2018-09-12T15:37:07.415Z,32.09
2018-09-12T15:39:36.398Z,30.85
2018-09-12T15:42:05.516Z,30.57
2018-09-12T15:44:34.513Z,30.70
2018-09-12T15:47:03.600Z,31.21
2018-09-12T15:49:32.620Z,30.73
2018-09-12T15:52:01.627Z,30.41
2018-09-12T15:54:30.679Z,30.48
2018-09-12T15:56:59.773Z,30.41
2018-09-12T15:59:28.841Z,30.73
2018-09-12T16:01:57.816Z,31.72
2018-09-12T16:04:34.644Z,31.22
2018-09-12T16:07:03.863Z,31.97
2018-09-12T16:09:32.961Z,32.66
2018-09-12T16:12:02.003Z,32.45
2018-09-12T16:14:31.085Z,33.62
2018-09-12T16:17:00.284Z,33.03
2018-09-12T16:19:29.326Z,33.40
2018-09-12T16:21:58.315Z,32.96
2018-09-12T16:24:27.357Z,33.82
2018-09-12T16:38:26.899Z,34.61
2018-09-12T16:40:55.986Z,33.13
2018-09-12T16:43:24.981Z,32.46
2018-09-12T16:45:54.077Z,35.33
2018-09-12T16:48:23.056Z,37.44
2018-09-12T16:50:52.066Z,37.01
2018-09-12T16:53:22.837Z,37.42
2018-09-12T16:55:51.847Z,38.58
2018-09-12T16:58:20.804Z,38.54
2018-09-12T17:00:52.021Z,39.61
2018-09-12T17:03:22.106Z,39.75
2018-09-12T17:05:51.728Z,40.28
2018-09-12T17:08:21.727Z,40.18
2018-09-12T17:10:50.791Z,40.29
2018-09-12T17:13:41.574Z,40.20
2018-09-12T17:16:10.577Z,41.39
2018-09-12T17:18:40.329Z,40.73
2018-09-12T17:21:09.440Z,41.96
2018-09-12T17:23:38.589Z,42.41
2018-09-12T17:26:08.753Z,43.55
2018-09-12T17:28:37.846Z,42.72
2018-09-12T17:31:06.878Z,43.37
2018-09-12T17:33:36.008Z,43.30
2018-09-12T17:36:05.108Z,42.18
2018-09-12T17:38:34.088Z,42.38
2018-09-12T17:41:03.229Z,42.71
2018-09-12T17:43:32.330Z,43.91
2018-09-12T17:46:01.448Z,43.90
2018-09-12T17:48:30.656Z,44.60
2018-09-12T17:50:59.968Z,44.18
2018-09-12T17:53:29.736Z,43.79
2018-09-12T17:56:14.511Z,44.03
2018-09-12T18:05:22.775Z,43.14
2018-09-12T18:07:51.963Z,41.67
2018-09-12T18:10:20.958Z,41.06
2018-09-12T18:12:49.973Z,40.82
2018-09-12T18:15:19.032Z,40.54
2018-09-12T18:17:48.137Z,40.27
2018-09-12T18:20:17.540Z,40.88
2018-09-12T18:22:46.644Z,41.40
2018-09-12T18:25:16.009Z,40.88
2018-09-12T18:27:45.073Z,42.39
2018-09-12T18:30:15.417Z,47.35
2018-09-12T18:32:44.469Z,49.90
2018-09-12T18:35:18.379Z,50.28
2018-09-12T18:37:47.605Z,49.83
2018-09-12T18:40:17.255Z,48.99
2018-09-12T18:42:46.462Z,49.45
2018-09-12T18:45:16.134Z,48.03
2018-09-12T18:47:45.286Z,49.20
2018-09-12T18:50:14.842Z,49.14
2018-09-12T18:52:43.887Z,46.55
2018-09-12T18:55:12.931Z,46.70
2018-09-12T18:57:42.114Z,46.42
2018-09-12T19:00:11.261Z,46.69
2018-09-12T19:02:40.424Z,45.54
2018-09-12T19:05:10.766Z,45.68
2018-09-12T19:07:39.843Z,47.06
2018-09-12T19:10:09.710Z,48.63
2018-09-12T19:12:41.480Z,48.52
2018-09-12T19:15:10.611Z,47.58
2018-09-12T19:17:39.833Z,46.89
2018-09-12T19:20:09.016Z,47.68
2018-09-12T19:22:38.153Z,47.54
2018-09-12T19:25:07.343Z,47.29
2018-09-12T19:27:36.528Z,46.38
2018-09-12T19:30:05.757Z,46.96
2018-09-12T19:32:35.306Z,47.61
2018-09-12T19:35:04.578Z,47.32
2018-09-12T19:37:34.084Z,48.73
2018-09-12T19:40:03.151Z,48.16
2018-09-12T19:42:32.510Z,48.64
2018-09-12T19:45:01.558Z,49.51
2018-09-12T19:47:30.577Z,49.29
2018-09-12T19:49:59.686Z,48.78
2018-09-12T19:52:28.758Z,47.12
2018-09-12T19:54:57.807Z,47.90
2018-09-12T19:57:26.871Z,47.40
2018-09-12T19:59:55.906Z,46.36
2018-09-12T20:02:33.840Z,46.71
2018-09-12T20:05:03.014Z,45.87
2018-09-12T20:07:32.831Z,45.56
2018-09-12T20:10:01.929Z,45.32
2018-09-12T20:12:30.933Z,45.08
2018-09-12T20:14:59.992Z,45.81
2018-09-12T20:17:30.258Z,44.88
2018-09-12T20:19:59.545Z,44.89
2018-09-12T20:22:28.708Z,44.76
2018-09-12T20:24:57.879Z,45.31
2018-09-12T20:27:26.932Z,44.79
2018-09-12T20:29:55.986Z,45.44
2018-09-12T20:32:25.009Z,45.91
2018-09-12T20:34:54.095Z,45.66
2018-09-12T20:37:23.216Z,45.37
2018-09-12T20:39:52.252Z,46.04
2018-09-12T20:42:34.798Z,45.57
2018-09-12T20:55:05.134Z,45.83
2018-09-12T20:57:34.187Z,46.45
2018-09-12T21:00:03.186Z,46.17
2018-09-12T21:02:32.303Z,46.56
2018-09-12T21:05:01.348Z,47.25
2018-09-12T21:07:30.428Z,46.73
2018-09-12T21:09:59.450Z,47.20
2018-09-12T21:12:28.520Z,46.79
2018-09-12T21:14:57.589Z,47.57
2018-09-12T21:17:26.630Z,46.89
2018-09-12T21:19:55.730Z,46.97
2018-09-12T21:22:24.826Z,46.76
2018-09-12T21:24:53.828Z,47.03
2018-09-12T21:27:22.856Z,47.14
2018-09-12T21:29:51.940Z,47.00
2018-09-12T21:32:20.953Z,47.11
2018-09-12T21:34:50.011Z,47.72
2018-09-12T21:37:19.001Z,49.09
2018-09-12T21:39:48.104Z,48.49
2018-09-12T21:42:17.756Z,48.55
2018-09-12T21:44:46.779Z,49.94
2018-09-12T21:47:16.613Z,50.54
2018-09-12T21:49:45.745Z,50.96
2018-09-12T21:52:15.561Z,51.24
2018-09-12T21:54:44.592Z,51.07
2018-09-12T21:57:13.625Z,51.88
2018-09-12T21:59:42.817Z,51.07
2018-09-12T22:02:12.017Z,51.43
2018-09-12T22:04:41.163Z,52.34
2018-09-12T22:07:10.212Z,52.34
2018-09-12T22:09:39.386Z,52.08
2018-09-12T22:12:08.569Z,51.42
2018-09-12T22:14:37.713Z,52.32
2018-09-12T22:17:06.872Z,52.33
2018-09-12T22:19:36.124Z,51.78
2018-09-12T22:22:05.173Z,51.74
2018-09-12T22:24:34.268Z,52.20
2018-09-12T22:27:03.472Z,52.60
2018-09-12T22:29:32.670Z,52.62
2018-09-12T22:32:02.060Z,52.42
2018-09-12T22:34:31.263Z,52.29
2018-09-12T22:37:00.402Z,53.09
2018-09-12T22:39:29.609Z,51.76
2018-09-12T22:41:59.288Z,51.36
2018-09-12T22:44:45.076Z,50.87
2018-09-12T22:47:14.946Z,50.50
2018-09-12T22:49:44.071Z,51.29
2018-09-12T22:52:13.104Z,51.02
2018-09-12T22:54:42.333Z,51.84
2018-09-12T22:57:11.323Z,52.82
2018-09-12T22:59:40.464Z,51.92
2018-09-12T23:02:09.616Z,53.17
2018-09-12T23:04:38.601Z,53.00
2018-09-12T23:07:07.869Z,53.02
2018-09-12T23:09:36.977Z,53.83
2018-09-12T23:12:06.120Z,55.24
2018-09-12T23:14:35.189Z,55.19
2018-09-12T23:17:07.418Z,55.86
2018-09-12T23:19:36.607Z,56.00
2018-09-12T23:22:05.782Z,56.65
2018-09-12T23:24:34.819Z,56.23
2018-09-12T23:27:03.854Z,56.70
2018-09-12T23:29:33.201Z,56.31
2018-09-12T23:32:02.281Z,57.15
2018-09-12T23:34:33.695Z,55.84
2018-09-12T23:37:02.788Z,55.68
2018-09-12T23:39:31.910Z,55.64
2018-09-12T23:42:01.137Z,55.74
2018-09-12T23:44:33.405Z,54.83
2018-09-12T23:47:02.522Z,54.24
2018-09-12T23:49:31.629Z,54.31
2018-09-12T23:52:00.803Z,56.06
2018-09-12T23:54:29.976Z,57.90
2018-09-12T23:56:59.077Z,60.58
2018-09-12T23:59:28.181Z,61.09
